Terminal Aerodrome Forecast
Issued by NWS Oklahoma City, OK

Home | Current Version | Previous Version | Text Only | Print | Product List | Glossary On
Versions: 1 2 3 4 5 6 7 8 9 10 11 12 13 14 15 16 17 18 19 20 21 22 23
000
FTUS44 KOUN 181123
TAFOUN
TAF
KOUN 181123Z 1812/1912 16008KT P6SM SCT050 BKN250
     FM181430 07010G18KT P6SM SCT040 BKN250
      TEMPO 1815/1817 BKN040
     FM181700 17010KT P6SM SCT050 BKN250=

USA.gov is the U.S. government's official web portal to all federal, state and local government web resources and services.